Flight Track Log - Related Links

Times and Time Zones

All times are in EDT time to prevent confusion due to time zone crossing. See the NVC102 flight status page for this flight to view local times or setup timezone preferences in your user account.

Time Position Orientation Groundspeed Altitude Reporting Facility
EDT Latitude Longitude Course Direction KTS MPH feet Rate Location/Type
Thu 01:24:15 PM 49.2360 -89.2487 310° West  Level FlightAware Approximate
Thu 01:25:15 PM 49.2079 -89.1394 310° West  Level FlightAware Approximate
Thu 01:26:15 PM 49.1797 -89.0301 309° West  Level FlightAware Approximate
Thu 01:27:15 PM 49.1514 -88.9210 309° West  Level FlightAware Approximate
Thu 01:28:15 PM 49.1230 -88.8120 309° West  Level FlightAware Approximate
Thu 01:29:15 PM 49.0796 -88.6461 308° West  Level FlightAware Approximate
Thu 01:30:15 PM 49.0359 -88.4806 308° West  Level FlightAware Approximate
Thu 01:31:15 PM 48.9919 -88.3153 308° West  Level FlightAware Approximate
Thu 01:32:15 PM 48.9477 -88.1503 307° West  Level FlightAware Approximate
Thu 01:33:15 PM 48.9045 -87.9848 307° West  Level FlightAware Approximate
Thu 01:34:15 PM 48.8610 -87.8197 307° West  Level FlightAware Approximate
Thu 01:35:15 PM 48.8172 -87.6549 307° West  Level FlightAware Approximate
Thu 01:36:15 PM 48.7733 -87.4903 306° West  Level FlightAware Approximate
Thu 01:37:15 PM 48.7457 -87.3849 306° West  Level FlightAware Approximate
Thu 01:38:15 PM 48.7179 -87.2797 306° West  Level FlightAware Approximate
Thu 01:39:15 PM 48.6902 -87.1745 306° West  Level FlightAware Approximate
Thu 01:40:15 PM 48.6623 -87.0695 306° West  Level FlightAware Approximate
Thu 01:41:15 PM 48.6343 -86.9646 306° West  Level FlightAware Approximate
Thu 01:42:15 PM 48.6064 -86.8607 306° West  Level FlightAware Approximate
Thu 01:43:15 PM 48.5785 -86.7569 305° West  Level FlightAware Approximate
Thu 01:44:15 PM 48.5505 -86.6532 305° West  Level FlightAware Approximate
Thu 01:45:15 PM 48.5223 -86.5497 305° West  Level FlightAware Approximate
Thu 01:46:15 PM 48.4941 -86.4462 305° West  Level FlightAware Approximate
Thu 01:47:15 PM 48.4658 -86.3429 305° West  Level FlightAware Approximate
Thu 01:48:15 PM 48.4374 -86.2396 305° West  Level FlightAware Approximate
Thu 01:49:15 PM 48.4089 -86.1365 305° West  Level FlightAware Approximate
Thu 01:50:15 PM 48.3803 -86.0336 305° West  Level FlightAware Approximate
Thu 01:51:15 PM 48.3522 -85.9326 305° West  Level FlightAware Approximate
Thu 01:52:15 PM 48.3240 -85.8318 305° West  Level FlightAware Approximate
Thu 01:53:15 PM 48.2963 -85.7306 305° West  Level FlightAware Approximate
Thu 01:54:15 PM 48.2686 -85.6296 304° West  Level FlightAware Approximate
Thu 01:55:15 PM 48.2410 -85.5292 304° West  Level FlightAware Approximate
Thu 01:56:15 PM 48.2133 -85.4290 304° West  Level FlightAware Approximate
Thu 01:57:15 PM 48.1855 -85.3289 304° West  Level FlightAware Approximate
Thu 01:58:15 PM 48.1576 -85.2289 304° West  Level FlightAware Approximate
Thu 01:59:15 PM 48.1296 -85.1289 304° West  Level FlightAware Approximate
Thu 02:00:15 PM 48.1015 -85.0291 304° West  Level FlightAware Approximate
Thu 02:01:15 PM 48.0733 -84.9294 304° West  Level FlightAware Approximate
Thu 02:02:15 PM 48.0451 -84.8298 304° West  Level FlightAware Approximate
Thu 02:03:15 PM 48.0170 -84.7302 304° West  Level FlightAware Approximate
Thu 02:04:15 PM 47.9888 -84.6307 304° West  Level FlightAware Approximate
Thu 02:05:15 PM 47.9604 -84.5313 304° West  Level FlightAware Approximate
Thu 02:06:15 PM 47.9320 -84.4321 304° West  Level FlightAware Approximate
Thu 02:07:15 PM 47.9036 -84.3329 304° West  Level FlightAware Approximate
Thu 02:08:15 PM 47.8750 -84.2338 304° West  Level FlightAware Approximate
Thu 02:09:15 PM 47.8463 -84.1349 304° West  Level FlightAware Approximate
Thu 02:10:15 PM 47.8176 -84.0360 304° West  Level FlightAware Approximate
Thu 02:11:15 PM 47.7888 -83.9373 304° West  Level FlightAware Approximate
Thu 02:12:15 PM 47.7599 -83.8387 304° West  Level FlightAware Approximate
Thu 02:12:57 PM 51.3833 -93.5000 32° Northeast 230 265 8,000  Level Winnipeg Center
Thu 02:13:57 PM 51.4333 -93.4500 14° North 280 322 10,300 2,000 Climbing Winnipeg Center
Thu 02:14:57 PM 51.5167 -93.4167 14° North 300 345 12,000 850 Climbing Winnipeg Center
Thu 02:15:57 PM 51.6000 -93.3833 26° Northeast 300 345 12,000  Level Winnipeg Center
Thu 02:16:57 PM 51.6833 -93.3167 351° North 300 345 12,000  Level Winnipeg Center
Thu 02:17:57 PM 51.7500 -93.3333 270° West 290 334 12,000  Level Winnipeg Center
Thu 02:18:57 PM 51.7500 -93.4500 194° South 270 311 12,000  Level Winnipeg Center
Thu 02:19:57 PM 51.6667 -93.4833 197° South 280 322 12,000  Level Winnipeg Center
Thu 02:20:57 PM 51.6000 -93.5167 194° South 290 334 12,000  Level Winnipeg Center
Thu 02:21:57 PM 51.5167 -93.5500 194° South 290 334 12,000  Level Winnipeg Center
Thu 02:22:57 PM 51.4333 -93.5833 197° South 290 334 12,000  Level Winnipeg Center
Thu 02:23:57 PM 51.3667 -93.6167 194° South 290 334 12,000  Level Winnipeg Center
Thu 02:24:57 PM 51.2833 -93.6500 194° South 290 334 12,000  Level Winnipeg Center
Thu 02:25:57 PM 51.2000 -93.6833 197° South 280 322 12,000  Level Winnipeg Center
Thu 02:26:57 PM 51.1333 -93.7167 194° South 270 311 12,000  Level Winnipeg Center
Thu 02:27:57 PM 51.0500 -93.7500 226° Southwest 270 311 12,000  Level Winnipeg Center
Thu 02:28:57 PM 51.0000 -93.8333 270° West 260 299 12,000 -250 Level Winnipeg Center
Thu 02:29:57 PM 51.0000 -93.9333 255° West 260 299 11,500 -750 Descending Winnipeg Center
Thu 02:30:57 PM 50.9833 -94.0333 246° West 260 299 10,500 -1,000 Descending Winnipeg Center
Thu 02:31:57 PM 50.9500 -94.1500 238° Southwest 250 288 9,500 -1,100 Descending Winnipeg Center
Thu 02:32:57 PM 50.9167 -94.2333 259° West 260 299 8,300 -1,300 Descending Winnipeg Center
Thu 02:33:57 PM 50.9000 -94.3667 255° West 260 299 6,900 -1,150 Descending Winnipeg Center
Thu 02:34:57 PM 50.8833 -94.4667 360° North 270 311 6,000 -103 Descending Winnipeg Center
Thu 02:43:41 PM 50.9500 -94.4667 77° East 240 276 5,900  Descending Winnipeg Center
Thu 02:45:41 PM 50.9833 -94.2333 77° East 270 311 6,000 33 Climbing Winnipeg Center
Thu 02:46:41 PM 51.0000 -94.1167 62° Northeast 270 311 6,000  Level Winnipeg Center
Thu 02:47:41 PM 51.0333 -94.0167 79° East 270 311 6,000  Level Winnipeg Center
Thu 02:48:41 PM 51.0500 -93.8833 90° East 270 311 6,000  Level Winnipeg Center
Thu 02:49:41 PM 51.0500 -93.7667 105° East 270 311 6,000 650 Level Winnipeg Center
Thu 02:50:41 PM 51.0333 -93.6667 112° Southeast 260 299 7,300 1,800 Climbing Winnipeg Center
Thu 02:51:41 PM 51.0000 -93.5333 101° East 280 322 9,600 2,200 Climbing Winnipeg Center
Thu 02:52:41 PM 50.9833 -93.4000 121° Southeast 300 345 11,700 2,100 Climbing Winnipeg Center
Thu 02:53:41 PM 50.9333 -93.2667 114° Southeast 320 368 13,800 2,200 Climbing Winnipeg Center
Thu 02:54:41 PM 50.9000 -93.1500 101° East 320 368 16,100 2,250 Climbing Winnipeg Center
Thu 02:55:41 PM 50.8833 -93.0167 112° Southeast 330 380 18,300 2,150 Climbing Winnipeg Center
Thu 02:56:41 PM 50.8500 -92.8833 118° Southeast 340 391 20,400 1,850 Climbing Winnipeg Center
Thu 02:57:41 PM 50.8000 -92.7333 107° East 350 403 22,000 1,550 Climbing Winnipeg Center
Thu 02:58:41 PM 50.7667 -92.5667 114° Southeast 360 414 23,500 1,350 Climbing Winnipeg Center
Thu 02:59:41 PM 50.7333 -92.4500 113° Southeast 380 437 24,700 1,050 Climbing Winnipeg Center
Thu 03:00:41 PM 50.6833 -92.2667 106° East 400 460 25,600 950 Climbing Winnipeg Center
Thu 03:01:41 PM 50.6500 -92.0833 120° Southeast 420 483 26,600 1,050 Climbing Winnipeg Center
Thu 03:02:41 PM 50.5833 -91.9000 106° East 430 495 27,700 950 Climbing Winnipeg Center
Thu 03:03:41 PM 50.5500 -91.7167 118° Southeast 440 506 28,500 900 Climbing Winnipeg Center
Thu 03:04:41 PM 50.5000 -91.5667 111° Southeast 440 506 29,500 900 Climbing Winnipeg Center
Thu 03:05:41 PM 50.4500 -91.3667 113° Southeast 450 518 30,300 800 Climbing Winnipeg Center
Thu 03:06:41 PM 50.4000 -91.1833 106° East 450 518 31,100 900 Climbing Winnipeg Center
Thu 03:07:41 PM 50.3667 -91.0000 122° Southeast 450 518 32,100 900 Climbing Winnipeg Center
Thu 03:08:41 PM 50.3000 -90.8333 111° Southeast 450 518 32,900 450 Climbing Winnipeg Center
Thu 03:09:41 PM 50.2500 -90.6333 106° East 450 518 33,000 50 Climbing Winnipeg Center
Thu 03:10:41 PM 50.2167 -90.4500 120° Southeast 470 541 33,000  Level Winnipeg Center
Thu 03:11:41 PM 50.1500 -90.2667 117° Southeast 480 552 33,000  Level Winnipeg Center
Thu 03:12:41 PM 50.0833 -90.0667 111° Southeast 480 552 33,000  Level Winnipeg Center
Thu 03:13:41 PM 50.0333 -89.8667 115° Southeast 480 552 33,000  Level Winnipeg Center
Thu 03:14:41 PM 49.9833 -89.7000 111° Southeast 480 552 33,000  Level Winnipeg Center
Thu 03:15:41 PM 49.9333 -89.5000 122° Southeast 480 552 33,000  Level Winnipeg Center
Thu 03:16:41 PM 49.8667 -89.3333 110° East 470 541 33,000  Level Winnipeg Center
Thu 03:17:41 PM 49.8167 -89.1167 113° Southeast 470 541 33,000  Level Winnipeg Center
Thu 03:18:41 PM 49.7667 -88.9333 113° Southeast 470 541 33,000  Level Winnipeg Center
Thu 03:19:41 PM 49.7167 -88.7500 115° Southeast 480 552 33,000  Level Winnipeg Center
Thu 03:20:41 PM 49.6667 -88.5833 117° Southeast 480 552 33,000  Level Winnipeg Center
Thu 03:21:41 PM 49.6000 -88.3833 117° Southeast 490 564 33,000  Level Winnipeg Center
Thu 03:22:41 PM 49.5333 -88.1833 111° Southeast 490 564 33,000  Level Winnipeg Center
Thu 03:23:41 PM 49.4833 -87.9833 119° Southeast 490 564 33,000  Level Winnipeg Center
Thu 03:24:41 PM 49.4167 -87.8000 115° Southeast 490 564 33,000  Level Winnipeg Center
Thu 03:25:41 PM 49.3667 -87.6333 117° Southeast 490 564 33,000  Level Winnipeg Center
Thu 03:26:41 PM 49.3000 -87.4333 115° Southeast 480 552 33,000  Level Winnipeg Center
Thu 03:27:41 PM 49.2500 -87.2667 117° Southeast 480 552 33,000  Level Winnipeg Center
Thu 03:28:41 PM 49.1833 -87.0667 107° East 470 541 33,000  Level Winnipeg Center
Thu 03:29:41 PM 49.1500 -86.9000 115° Southeast 470 541 33,000  Level Winnipeg Center
Thu 03:30:40 PM 49.1000 -86.7333 122° Southeast 470 541 33,000  Level Winnipeg Center
Thu 03:31:40 PM 49.0167 -86.5333 115° Southeast 480 552 33,000  Level Winnipeg Center
Thu 03:32:40 PM 48.9667 -86.3667 119° Southeast 470 541 33,000  Level Winnipeg Center
Thu 03:33:40 PM 48.9000 -86.1833 114° Southeast 460 529 33,000  Level Winnipeg Center
Thu 03:34:40 PM 48.8500 -86.0167 117° Southeast 460 529 33,000  Level Winnipeg Center
Thu 03:35:40 PM 48.7833 -85.8167 114° Southeast 470 541 33,000  Level Winnipeg Center
Thu 03:36:40 PM 48.7333 -85.6500 121° Southeast 470 541 33,000  Level Winnipeg Center
Thu 03:37:31 PM 48.7000 -85.5667 114° Southeast 460 529 33,000  Level Toronto Center
Thu 03:38:31 PM 48.6500 -85.4000 119° Southeast 460 529 33,000  Level Toronto Center
Thu 03:39:31 PM 48.5833 -85.2167 112° Southeast 470 541 33,000  Level Toronto Center
Thu 03:40:31 PM 48.5333 -85.0333 124° Southeast 470 541 33,000  Level Toronto Center
Thu 03:41:31 PM 48.4667 -84.8833 124° Southeast 470 541 33,000  Level Toronto Center
Thu 03:42:31 PM 48.3833 -84.7000 108° East 470 541 33,000  Level Toronto Center
Thu 03:43:31 PM 48.3500 -84.5500 124° Southeast 470 541 33,000  Level Toronto Center
Thu 03:44:31 PM 48.2667 -84.3667 112° Southeast 470 541 33,000  Level Toronto Center
Thu 03:45:31 PM 48.2167 -84.1833 119° Southeast 470 541 33,000  Level Toronto Center
Thu 03:46:31 PM 48.1500 -84.0000 124° Southeast 470 541 33,000  Level Toronto Center
Thu 03:47:31 PM 48.0833 -83.8500 112° Southeast 480 552 33,000  Level Toronto Center
Thu 03:48:31 PM 48.0333 -83.6667 118° Southeast 470 541 33,000  Level Toronto Center
Thu 03:49:31 PM 47.9667 -83.4833 121° Southeast 470 541 33,000  Level Toronto Center
Thu 03:50:31 PM 47.9000 -83.3167 114° Southeast 480 552 33,000  Level Toronto Center
Thu 03:51:31 PM 47.8500 -83.1500 127° Southeast 470 541 33,000  Level Toronto Center
Thu 03:52:31 PM 47.7667 -82.9833 118° Southeast 480 552 33,000  Level Toronto Center
Thu 03:53:31 PM 47.7000 -82.8000 112° Southeast 480 552 33,000  Level Toronto Center
Thu 03:54:31 PM 47.6500 -82.6167 123° Southeast 480 552 33,000  Level Toronto Center
Thu 03:55:31 PM 47.5833 -82.4667 121° Southeast 480 552 33,000  Level Toronto Center
Thu 03:56:31 PM 47.5167 -82.3000 118° Southeast 480 552 33,000  Level Toronto Center
Thu 03:57:31 PM 47.4500 -82.1167 121° Southeast 480 552 33,000  Level Toronto Center
Thu 03:58:31 PM 47.3833 -81.9500 118° Southeast 480 552 33,000  Level Toronto Center
Thu 03:59:31 PM 47.3167 -81.7667 120° Southeast 480 552 33,000  Level Toronto Center
Thu 04:00:31 PM 47.2500 -81.6000 123° Southeast 480 552 33,000 -50 Level Toronto Center
Thu 04:01:31 PM 47.1833 -81.4500 118° Southeast 480 552 32,900 -750 Descending Toronto Center
Thu 04:02:31 PM 47.1167 -81.2667 120° Southeast 480 552 31,500 -1,650 Descending Toronto Center
Thu 04:03:31 PM 47.0500 -81.1000 123° Southeast 470 541 29,600 -2,100 Descending Toronto Center
Thu 04:04:31 PM 46.9833 -80.9500 114° Southeast 460 529 27,300 -2,500 Descending Toronto Center
Thu 04:05:31 PM 46.9333 -80.7833 126° Southeast 450 518 24,600 -2,550 Descending Toronto Center
Thu 04:06:31 PM 46.8667 -80.6500 119° Southeast 430 495 22,200 -2,450 Descending Toronto Center
Thu 04:07:31 PM 46.8167 -80.5167 116° Southeast 400 460 19,700 -2,300 Descending Toronto Center
Thu 04:08:31 PM 46.7667 -80.3667 126° Southeast 390 449 17,600 -2,100 Descending Toronto Center
Thu 04:09:31 PM 46.7000 -80.2333 122° Southeast 380 437 15,500 -2,100 Descending Toronto Center
Thu 04:10:31 PM 46.6500 -80.1167 134° Southeast 360 414 13,400 -2,250 Descending Toronto Center
Thu 04:11:31 PM 46.5833 -80.0167 126° Southeast 330 380 11,000 -2,150 Descending Toronto Center
Thu 04:12:31 PM 46.5333 -79.9167 131° Southeast 320 368 9,100 -1,800 Descending Toronto Center
Thu 04:13:31 PM 46.4833 -79.8333 139° Southeast 300 345 7,400 -1,750 Descending Toronto Center
Thu 04:14:31 PM 46.4167 -79.7500 137° Southeast 280 322 5,600 -1,650 Descending Toronto Center
Thu 04:15:31 PM 46.3667 -79.6833 145° Southeast 260 299 4,100 -1,300 Descending Toronto Center
Thu 04:16:31 PM 46.3167 -79.6333 110° East 240 276 3,000 -550 Descending Toronto Center
Thu 04:17:31 PM 46.3000 -79.5667 64° Northeast 210 242 3,000 -200 Level Toronto Center
Thu 04:18:31 PM 46.3167 -79.5167 64° Northeast 170 196 2,600 -650 Descending Toronto Center
Thu 04:19:31 PM 46.3333 -79.4667 64° Northeast 140 161 1,700 -750 Descending Toronto Center
Thu 04:20:31 PM 46.3500 -79.4167 64° Northeast 130 150 1,100 -600 Descending Toronto Center

Login

Don't have an account? Register now (free) for customized features, flight alerts, and more!